createdAt,value
2023-05-22T00:01:02.320Z,69.69
2023-05-22T00:02:05.282Z,69.70
2023-05-22T00:03:08.660Z,69.87
2023-05-22T00:04:13.472Z,69.90
2023-05-22T00:05:18.524Z,69.81
2023-05-22T00:06:22.357Z,69.94
2023-05-22T00:07:27.512Z,69.96
2023-05-22T00:08:31.154Z,70.08
2023-05-22T00:09:34.045Z,70.13
2023-05-22T00:10:37.351Z,70.14
2023-05-22T00:11:40.446Z,70.05
2023-05-22T00:12:43.320Z,70.05
2023-05-22T00:13:46.591Z,70.08
2023-05-22T00:14:49.596Z,70.20
2023-05-22T00:15:53.382Z,70.49
2023-05-22T00:16:56.496Z,70.39
2023-05-22T00:17:59.996Z,70.49
2023-05-22T00:19:03.850Z,70.41
2023-05-22T00:20:10.786Z,70.45
2023-05-22T00:21:13.718Z,70.54
2023-05-22T00:22:17.053Z,70.73
2023-05-22T00:23:22.093Z,70.68
2023-05-22T00:24:25.020Z,70.74
2023-05-22T00:25:27.917Z,70.59
2023-05-22T00:26:30.837Z,70.70
2023-05-22T00:27:34.182Z,70.66
2023-05-22T00:28:37.337Z,70.85
2023-05-22T00:29:40.241Z,70.66
2023-05-22T00:30:43.171Z,70.78
2023-05-22T00:31:46.155Z,70.81
2023-05-22T00:32:49.106Z,70.69
2023-05-22T00:33:52.292Z,70.85
2023-05-22T00:34:55.213Z,70.90
2023-05-22T00:35:58.248Z,71.02
2023-05-22T00:37:01.344Z,70.95
2023-05-22T00:38:07.611Z,70.94
2023-05-22T00:39:11.406Z,70.98
2023-05-22T00:40:15.911Z,70.98
2023-05-22T00:41:19.074Z,71.05
2023-05-22T00:42:23.045Z,71.01
2023-05-22T00:43:26.316Z,71.21
2023-05-22T00:44:29.887Z,71.17
2023-05-22T00:45:33.132Z,71.22
2023-05-22T00:46:36.692Z,71.30
2023-05-22T00:47:41.843Z,71.34
2023-05-22T00:48:45.308Z,71.42
2023-05-22T00:49:48.488Z,71.44
2023-05-22T00:50:53.900Z,71.47
2023-05-22T00:51:57.216Z,71.56
2023-05-22T00:53:00.223Z,71.62
2023-05-22T00:54:05.050Z,71.66
2023-05-22T00:55:08.970Z,71.73
2023-05-22T00:56:13.217Z,71.64
2023-05-22T00:57:17.415Z,71.81
2023-05-22T00:58:21.950Z,71.93
2023-05-22T00:59:25.063Z,71.78
2023-05-22T01:00:28.247Z,71.79
2023-05-22T01:01:33.825Z,71.97
2023-05-22T01:02:37.380Z,72.01
2023-05-22T01:03:45.873Z,71.89
2023-05-22T01:04:49.973Z,72.23
2023-05-22T01:05:53.883Z,72.05
2023-05-22T01:06:56.829Z,72.07
2023-05-22T01:07:59.869Z,72.15
2023-05-22T01:09:04.223Z,72.21
2023-05-22T01:10:07.937Z,72.10
2023-05-22T01:11:22.292Z,72.02
2023-05-22T01:12:28.205Z,72.33
2023-05-22T01:13:50.718Z,72.44
2023-05-22T01:14:57.670Z,72.49
2023-05-22T01:16:05.917Z,72.48
2023-05-22T01:17:35.297Z,72.51
2023-05-22T01:19:10.718Z,72.62
2023-05-22T01:20:22.453Z,72.75
2023-05-22T01:21:37.276Z,72.76
2023-05-22T01:22:50.100Z,72.79
2023-05-22T01:24:37.323Z,72.85
2023-05-22T01:26:14.241Z,72.94
2023-05-22T01:27:26.372Z,72.98
2023-05-22T01:28:41.324Z,72.99
2023-05-22T01:29:54.909Z,73.02
2023-05-22T01:31:01.318Z,73.03
2023-05-22T01:32:05.864Z,73.00
2023-05-22T01:33:10.035Z,73.02
2023-05-22T01:34:14.693Z,73.00
2023-05-22T01:35:21.540Z,73.18
2023-05-22T01:36:31.069Z,73.21
2023-05-22T01:37:37.254Z,73.27
2023-05-22T01:38:43.184Z,73.17
2023-05-22T01:39:47.007Z,73.33
2023-05-22T01:40:51.235Z,73.23
2023-05-22T01:41:54.125Z,73.38
2023-05-22T01:42:57.551Z,73.40
2023-05-22T01:44:03.567Z,73.46
2023-05-22T01:45:10.335Z,73.49
2023-05-22T01:46:14.370Z,73.60
2023-05-22T01:47:18.221Z,73.64
2023-05-22T01:48:21.180Z,73.58
2023-05-22T01:49:24.195Z,73.66
2023-05-22T01:50:28.025Z,73.63
2023-05-22T01:51:49.201Z,73.59
2023-05-22T01:53:16.580Z,73.72
2023-05-22T01:54:28.387Z,73.79
2023-05-22T01:55:46.287Z,73.81
2023-05-22T01:57:07.534Z,73.82
2023-05-22T01:58:43.085Z,73.91
2023-05-22T01:59:54.595Z,73.96
2023-05-22T02:01:01.412Z,73.81
2023-05-22T02:02:10.730Z,73.90
2023-05-22T02:03:17.122Z,73.93
2023-05-22T02:04:22.935Z,74.03
2023-05-22T02:05:27.794Z,73.81
2023-05-22T02:06:33.406Z,73.92
2023-05-22T02:07:39.534Z,73.99
2023-05-22T02:08:43.293Z,74.07
2023-05-22T02:09:47.733Z,74.19
2023-05-22T02:10:52.387Z,74.13
2023-05-22T02:11:59.913Z,74.35
2023-05-22T02:13:04.462Z,74.47
2023-05-22T02:14:09.303Z,74.16
2023-05-22T02:15:12.391Z,74.16
2023-05-22T02:16:15.802Z,74.01
2023-05-22T02:17:18.943Z,73.93
2023-05-22T02:18:31.796Z,73.89
2023-05-22T02:19:37.443Z,74.01
2023-05-22T02:20:41.942Z,73.94
2023-05-22T02:21:44.873Z,74.08
2023-05-22T02:22:48.294Z,74.04
2023-05-22T02:23:51.255Z,74.02
2023-05-22T02:24:54.420Z,74.23
2023-05-22T02:25:57.603Z,74.32
2023-05-22T02:27:01.646Z,74.28
2023-05-22T02:28:04.895Z,74.27
2023-05-22T02:29:08.389Z,74.17
2023-05-22T02:30:12.672Z,74.44
2023-05-22T02:31:18.427Z,74.59
2023-05-22T02:32:21.446Z,74.51
2023-05-22T02:33:24.517Z,74.77
2023-05-22T02:34:27.737Z,74.65
2023-05-22T02:35:31.158Z,74.85
2023-05-22T02:36:34.119Z,74.94
2023-05-22T02:37:37.281Z,74.82
2023-05-22T02:38:40.545Z,74.97
2023-05-22T02:39:43.586Z,74.96
2023-05-22T02:40:47.236Z,75.11
2023-05-22T02:41:50.782Z,74.97
2023-05-22T02:42:53.698Z,75.11
2023-05-22T02:43:56.824Z,75.25
2023-05-22T02:44:59.935Z,75.29
2023-05-22T02:46:02.979Z,75.27
2023-05-22T02:47:06.717Z,75.15
2023-05-22T02:48:09.632Z,75.42
2023-05-22T02:49:12.719Z,75.38
2023-05-22T02:50:15.706Z,75.51
2023-05-22T02:51:18.667Z,75.52
2023-05-22T02:52:22.589Z,75.54
2023-05-22T02:53:25.540Z,75.62
2023-05-22T02:54:28.486Z,75.58
2023-05-22T02:55:31.476Z,75.56
2023-05-22T02:56:34.945Z,75.59
2023-05-22T02:57:38.076Z,75.51
2023-05-22T02:58:41.220Z,75.63
2023-05-22T02:59:44.602Z,75.57
2023-05-22T03:00:47.790Z,75.64
2023-05-22T03:01:51.026Z,75.56
2023-05-22T03:02:54.073Z,75.47
2023-05-22T03:03:57.545Z,75.46
2023-05-22T03:05:00.559Z,75.52
2023-05-22T03:06:04.396Z,75.60
2023-05-22T03:07:08.850Z,75.68
2023-05-22T03:08:12.134Z,75.57
2023-05-22T03:09:16.144Z,75.64
2023-05-22T03:10:19.143Z,75.70
2023-05-22T03:11:22.031Z,75.71
2023-05-22T03:12:25.036Z,75.77
2023-05-22T03:13:28.061Z,75.85
2023-05-22T03:14:31.119Z,75.79
2023-05-22T03:15:34.290Z,75.83
2023-05-22T03:16:44.424Z,75.95
2023-05-22T03:17:47.586Z,75.94
2023-05-22T03:18:51.770Z,76.16
2023-05-22T03:19:54.904Z,76.09
2023-05-22T03:20:57.876Z,75.92
2023-05-22T03:22:00.908Z,75.91
2023-05-22T03:23:05.451Z,76.21
2023-05-22T03:24:08.558Z,76.36
2023-05-22T03:25:11.783Z,76.32
2023-05-22T03:26:14.996Z,76.17
2023-05-22T03:27:18.020Z,76.19
2023-05-22T03:28:22.639Z,76.31
2023-05-22T03:29:25.602Z,76.18
2023-05-22T03:30:28.543Z,76.30
2023-05-22T03:31:57.699Z,76.29
2023-05-22T03:33:01.241Z,76.43
2023-05-22T03:34:05.917Z,76.28
2023-05-22T03:35:09.914Z,76.25
2023-05-22T03:36:12.917Z,76.23
2023-05-22T03:37:16.186Z,76.31
2023-05-22T03:38:19.567Z,76.24
2023-05-22T03:39:22.476Z,76.29
2023-05-22T03:40:45.746Z,76.31
2023-05-22T03:41:49.776Z,76.29
2023-05-22T03:42:52.787Z,76.37
2023-05-22T03:43:55.846Z,76.39
2023-05-22T03:44:59.159Z,76.36
2023-05-22T03:46:02.425Z,76.45
2023-05-22T03:47:05.609Z,76.33
2023-05-22T03:48:10.762Z,76.37
2023-05-22T03:49:13.855Z,76.42
2023-05-22T03:50:16.771Z,76.23
2023-05-22T03:51:21.698Z,76.13
2023-05-22T03:52:25.440Z,76.24
2023-05-22T03:53:29.640Z,76.25
2023-05-22T03:54:32.593Z,76.26
2023-05-22T03:55:35.854Z,76.25
2023-05-22T03:56:39.229Z,76.35
2023-05-22T03:57:42.290Z,76.43
2023-05-22T03:58:45.330Z,76.52
2023-05-22T03:59:48.560Z,76.44
2023-05-22T04:00:55.756Z,76.48
2023-05-22T04:02:01.284Z,76.49
2023-05-22T04:03:04.863Z,76.61
2023-05-22T04:04:09.666Z,76.48
2023-05-22T04:05:12.886Z,76.41
2023-05-22T04:06:16.000Z,76.46
2023-05-22T04:07:20.392Z,76.37
2023-05-22T04:08:23.372Z,76.42
2023-05-22T04:09:32.123Z,76.47
2023-05-22T04:10:37.625Z,76.47
2023-05-22T04:11:42.329Z,76.38
2023-05-22T04:12:45.446Z,76.25
2023-05-22T04:13:51.134Z,76.26
2023-05-22T04:14:54.434Z,76.20
2023-05-22T04:15:57.590Z,76.17
2023-05-22T04:17:00.703Z,76.13
2023-05-22T04:18:04.762Z,76.10
2023-05-22T04:19:09.730Z,76.14
2023-05-22T04:20:13.282Z,76.23
2023-05-22T04:21:17.640Z,76.29
2023-05-22T04:22:22.810Z,76.36
2023-05-22T04:23:25.893Z,76.39
2023-05-22T04:24:28.786Z,76.25
2023-05-22T04:25:34.384Z,76.17
2023-05-22T04:26:39.946Z,76.23
2023-05-22T04:27:44.019Z,76.23
2023-05-22T04:28:47.600Z,76.12
2023-05-22T04:29:51.232Z,76.13
2023-05-22T04:30:54.637Z,76.00
2023-05-22T04:31:57.692Z,75.99
2023-05-22T04:33:01.786Z,75.78
2023-05-22T04:34:07.367Z,75.75
2023-05-22T04:35:12.429Z,75.75
2023-05-22T04:36:15.854Z,75.61
2023-05-22T04:37:20.438Z,75.54
2023-05-22T04:38:26.469Z,75.63
2023-05-22T04:39:29.574Z,75.57
2023-05-22T04:40:34.457Z,75.50
2023-05-22T04:41:37.523Z,75.51
2023-05-22T04:42:41.289Z,75.39
2023-05-22T04:43:44.842Z,75.32
2023-05-22T04:44:48.462Z,75.34
2023-05-22T04:45:51.643Z,75.37
2023-05-22T04:46:57.463Z,75.29
2023-05-22T04:48:02.836Z,75.28
2023-05-22T04:49:09.157Z,75.19
2023-05-22T04:50:12.166Z,75.12
2023-05-22T04:51:15.423Z,75.16
2023-05-22T04:52:18.442Z,75.22
2023-05-22T04:53:21.459Z,75.18
2023-05-22T04:54:24.697Z,75.06
2023-05-22T04:55:27.572Z,75.12
2023-05-22T04:56:37.008Z,74.85
2023-05-22T04:57:41.424Z,74.72
2023-05-22T04:58:44.401Z,74.70
2023-05-22T04:59:48.019Z,74.56
2023-05-22T05:00:52.709Z,74.54
2023-05-22T05:01:55.773Z,74.52
2023-05-22T05:03:00.543Z,74.57
2023-05-22T05:04:04.154Z,74.45
2023-05-22T05:05:07.390Z,74.41
2023-05-22T05:06:12.595Z,74.39
2023-05-22T05:07:17.775Z,74.42
2023-05-22T05:08:20.954Z,74.28
2023-05-22T05:09:25.246Z,74.30
2023-05-22T05:10:28.273Z,74.31
2023-05-22T05:11:31.188Z,73.96
2023-05-22T05:12:34.134Z,73.77
2023-05-22T05:13:37.637Z,73.70
2023-05-22T05:14:40.589Z,73.56
2023-05-22T05:15:43.489Z,73.60
2023-05-22T05:16:51.757Z,73.30
2023-05-22T05:18:59.168Z,73.17
2023-05-22T05:20:02.540Z,73.11
2023-05-22T05:21:05.747Z,72.79
2023-05-22T05:22:08.677Z,72.58
2023-05-22T05:23:12.204Z,72.33
2023-05-22T05:24:16.969Z,72.22
2023-05-22T05:25:20.605Z,72.07
2023-05-22T05:26:24.318Z,72.09
2023-05-22T05:27:27.307Z,72.01
2023-05-22T05:28:30.427Z,71.98
2023-05-22T05:29:33.445Z,71.91
2023-05-22T05:30:41.933Z,71.58
2023-05-22T05:32:04.388Z,71.44
2023-05-22T05:33:26.850Z,71.53
2023-05-22T05:34:38.511Z,71.68
2023-05-22T05:35:52.864Z,71.75
2023-05-22T05:37:03.126Z,71.40
2023-05-22T05:38:07.046Z,71.25
2023-05-22T05:39:10.698Z,71.01
2023-05-22T05:40:14.401Z,70.71
2023-05-22T05:41:23.142Z,70.56
2023-05-22T05:42:33.152Z,70.57
2023-05-22T05:43:37.331Z,70.26
2023-05-22T05:44:43.194Z,70.21
2023-05-22T05:45:46.458Z,70.41
2023-05-22T05:46:49.948Z,70.71
2023-05-22T05:47:54.733Z,70.14
2023-05-22T05:48:58.561Z,69.78
2023-05-22T05:50:01.819Z,69.86
2023-05-22T05:51:06.936Z,69.84
2023-05-22T05:52:14.125Z,69.82
2023-05-22T05:53:17.310Z,69.44
2023-05-22T05:54:26.711Z,69.37
2023-05-22T05:55:34.553Z,69.26
2023-05-22T05:56:39.258Z,68.96
2023-05-22T05:57:42.470Z,69.08
2023-05-22T05:58:49.793Z,68.80
2023-05-22T06:00:22.681Z,68.43
2023-05-22T06:01:27.270Z,68.18
2023-05-22T06:02:31.363Z,68.42
2023-05-22T06:03:35.389Z,68.49
2023-05-22T06:04:48.761Z,68.09
2023-05-22T06:05:53.847Z,67.95
2023-05-22T06:07:01.999Z,68.19
2023-05-22T06:08:21.950Z,68.43
2023-05-22T06:09:24.996Z,68.35
2023-05-22T06:11:01.363Z,68.34
2023-05-22T06:12:13.918Z,68.38
2023-05-22T06:13:19.969Z,67.96
2023-05-22T06:14:22.920Z,67.78
2023-05-22T06:15:25.958Z,67.67
2023-05-22T06:16:29.932Z,67.61
2023-05-22T06:17:39.476Z,67.70
2023-05-22T06:18:42.565Z,67.68
2023-05-22T06:19:45.741Z,66.93
2023-05-22T06:20:49.168Z,66.68
2023-05-22T06:21:52.346Z,66.47
2023-05-22T06:22:56.543Z,66.72
2023-05-22T06:23:59.489Z,66.64
2023-05-22T06:25:05.243Z,66.45
2023-05-22T06:26:09.114Z,65.89
2023-05-22T06:27:12.425Z,65.67
2023-05-22T06:28:15.579Z,65.97
2023-05-22T06:29:18.864Z,66.16
2023-05-22T06:30:35.772Z,65.89
2023-05-22T06:31:43.968Z,65.72
2023-05-22T06:32:47.032Z,64.92
2023-05-22T06:33:52.089Z,64.27
2023-05-22T06:34:55.424Z,64.30
2023-05-22T06:35:58.732Z,64.48
2023-05-22T06:37:01.846Z,64.14
2023-05-22T06:38:07.845Z,64.17
2023-05-22T06:39:11.168Z,64.06
2023-05-22T06:40:32.492Z,63.81
2023-05-22T06:41:48.871Z,63.69
2023-05-22T06:42:52.770Z,63.73
2023-05-22T06:44:14.521Z,62.99
2023-05-22T06:45:20.056Z,62.83
2023-05-22T06:46:56.324Z,62.50
2023-05-22T06:48:01.211Z,61.71
2023-05-22T06:49:04.557Z,61.19
2023-05-22T06:50:15.254Z,60.91
2023-05-22T06:51:18.493Z,60.83
2023-05-22T06:52:24.790Z,60.58
2023-05-22T06:53:27.795Z,59.91
2023-05-22T06:54:31.048Z,59.42
2023-05-22T06:55:34.310Z,59.69
2023-05-22T06:56:42.526Z,59.39
2023-05-22T06:57:51.048Z,60.01
2023-05-22T06:58:54.226Z,59.63
2023-05-22T06:59:59.318Z,59.22
2023-05-22T07:01:23.338Z,59.17
2023-05-22T07:02:36.431Z,58.66
2023-05-22T07:04:05.199Z,57.94
2023-05-22T07:05:11.840Z,57.43
2023-05-22T07:06:25.272Z,57.51
2023-05-22T07:07:28.224Z,56.80
2023-05-22T07:08:31.287Z,56.84
2023-05-22T07:09:35.185Z,56.51
2023-05-22T07:10:39.376Z,56.52
2023-05-22T07:11:44.052Z,56.30
2023-05-22T07:12:48.124Z,56.11
2023-05-22T07:13:51.248Z,56.07
2023-05-22T07:14:54.908Z,55.50
2023-05-22T07:15:59.160Z,55.74
2023-05-22T07:17:02.216Z,55.59
2023-05-22T07:18:10.448Z,54.46
2023-05-22T07:19:16.001Z,54.88
2023-05-22T07:20:18.987Z,55.08
2023-05-22T07:21:38.312Z,54.73
2023-05-22T07:22:41.359Z,54.21
2023-05-22T07:23:44.292Z,53.96
2023-05-22T07:24:47.672Z,53.99
2023-05-22T07:25:52.127Z,53.55
2023-05-22T07:26:56.846Z,53.76
2023-05-22T07:28:02.268Z,53.68
2023-05-22T07:29:06.206Z,53.77
2023-05-22T07:30:10.229Z,53.90
2023-05-22T07:31:13.406Z,53.54
2023-05-22T07:32:16.441Z,53.60
2023-05-22T07:33:19.666Z,53.60
2023-05-22T07:34:23.009Z,53.31
2023-05-22T07:35:26.153Z,52.96
2023-05-22T07:36:29.407Z,52.67
2023-05-22T07:37:33.146Z,52.40
2023-05-22T07:38:36.364Z,52.19
2023-05-22T07:39:41.423Z,51.36
2023-05-22T07:40:47.287Z,50.73
2023-05-22T07:41:50.810Z,50.74
2023-05-22T07:42:54.164Z,50.93
2023-05-22T07:43:57.149Z,50.13
2023-05-22T07:45:03.886Z,49.92
2023-05-22T07:46:06.932Z,49.60
2023-05-22T07:47:14.549Z,49.78
2023-05-22T07:48:17.853Z,49.35
2023-05-22T07:49:23.723Z,49.25
2023-05-22T07:50:27.100Z,49.26
2023-05-22T07:51:30.104Z,49.85
2023-05-22T07:52:33.206Z,49.22
2023-05-22T07:53:37.876Z,48.39
2023-05-22T07:54:45.240Z,48.02
2023-05-22T07:55:49.284Z,47.79
2023-05-22T07:56:52.976Z,47.87
2023-05-22T07:57:57.551Z,48.50
2023-05-22T07:59:05.820Z,48.63
2023-05-22T08:00:10.132Z,48.15
2023-05-22T08:01:18.766Z,48.17
2023-05-22T08:02:22.677Z,48.24
2023-05-22T08:03:26.772Z,47.67
2023-05-22T08:04:30.324Z,47.25
2023-05-22T08:05:33.405Z,47.44
2023-05-22T08:06:36.559Z,47.72
2023-05-22T08:07:39.650Z,47.57
2023-05-22T08:08:42.869Z,46.64
2023-05-22T08:09:46.934Z,46.72
2023-05-22T08:11:03.232Z,46.95
2023-05-22T08:12:08.021Z,47.25
2023-05-22T08:13:12.512Z,47.19
2023-05-22T08:14:15.584Z,46.79
2023-05-22T08:15:18.547Z,47.08
2023-05-22T08:16:21.645Z,46.49
2023-05-22T08:17:24.613Z,45.82
2023-05-22T08:18:29.419Z,45.97
2023-05-22T08:19:33.473Z,46.43
2023-05-22T08:20:38.466Z,45.84
2023-05-22T08:21:41.797Z,45.84
2023-05-22T08:22:44.791Z,45.92
2023-05-22T08:23:47.663Z,45.92
2023-05-22T08:24:50.591Z,44.95
2023-05-22T08:25:53.628Z,44.90
2023-05-22T08:27:01.023Z,45.19
2023-05-22T08:28:04.232Z,44.89
2023-05-22T08:29:07.440Z,44.58
2023-05-22T08:30:10.555Z,44.49
2023-05-22T08:31:14.978Z,43.46
2023-05-22T08:32:18.630Z,43.23
2023-05-22T08:33:21.589Z,43.26
2023-05-22T08:34:25.232Z,43.44
2023-05-22T08:35:28.275Z,43.85
2023-05-22T08:36:34.068Z,43.28
2023-05-22T08:37:37.401Z,43.41
2023-05-22T08:38:41.443Z,42.84
2023-05-22T08:39:44.365Z,42.34
2023-05-22T08:40:51.485Z,42.66
2023-05-22T08:41:55.006Z,43.19
2023-05-22T08:42:58.572Z,42.93
2023-05-22T08:44:01.688Z,42.33
2023-05-22T08:45:07.217Z,42.43
2023-05-22T08:46:10.978Z,41.75
2023-05-22T08:47:15.410Z,42.34
2023-05-22T08:48:20.349Z,42.33
2023-05-22T08:49:24.359Z,42.33
2023-05-22T08:50:27.569Z,42.35
2023-05-22T08:51:35.833Z,42.50
2023-05-22T08:52:50.706Z,42.04
2023-05-22T08:53:56.826Z,41.64
2023-05-22T08:55:03.085Z,41.54
2023-05-22T08:56:07.285Z,41.59
2023-05-22T08:57:10.738Z,40.60
2023-05-22T08:58:14.477Z,40.56
2023-05-22T08:59:18.153Z,40.94
2023-05-22T09:00:21.702Z,41.24
2023-05-22T09:01:24.908Z,41.70
2023-05-22T09:02:28.481Z,41.84
2023-05-22T09:03:33.320Z,41.17
2023-05-22T09:04:36.447Z,41.05
2023-05-22T09:05:40.509Z,40.91
2023-05-22T09:06:43.527Z,40.03
2023-05-22T09:07:48.942Z,40.46
2023-05-22T09:08:52.219Z,40.58
2023-05-22T09:09:55.921Z,40.57
2023-05-22T09:10:59.186Z,40.38
2023-05-22T09:12:02.666Z,40.46
2023-05-22T09:13:09.588Z,40.01
2023-05-22T09:14:12.822Z,39.72
2023-05-22T09:15:16.578Z,39.60
2023-05-22T09:16:20.775Z,39.47
2023-05-22T09:17:24.135Z,40.33
2023-05-22T09:18:29.261Z,40.76
2023-05-22T09:19:32.804Z,40.12
2023-05-22T09:20:39.253Z,39.29
2023-05-22T09:21:43.102Z,38.89
2023-05-22T09:22:47.439Z,38.74
2023-05-22T09:23:51.114Z,39.01
2023-05-22T09:24:54.541Z,39.19
2023-05-22T09:25:59.418Z,38.89
2023-05-22T09:27:04.311Z,39.00
2023-05-22T09:28:07.596Z,39.40
2023-05-22T09:29:10.676Z,39.21
2023-05-22T09:30:20.868Z,38.69
2023-05-22T09:31:24.006Z,38.74
2023-05-22T09:32:29.926Z,38.40
2023-05-22T09:33:33.353Z,38.49
2023-05-22T09:34:36.357Z,38.76
2023-05-22T09:35:39.704Z,39.00
2023-05-22T09:36:42.928Z,38.75
2023-05-22T09:37:45.957Z,38.97
2023-05-22T09:38:49.295Z,38.20
2023-05-22T09:39:54.590Z,38.34
2023-05-22T09:40:57.703Z,38.64
2023-05-22T09:42:01.640Z,38.36
2023-05-22T09:43:18.049Z,38.48
2023-05-22T09:44:25.749Z,38.10
2023-05-22T09:45:28.811Z,38.28
2023-05-22T09:46:38.955Z,38.28
2023-05-22T09:47:42.259Z,38.11
2023-05-22T09:48:51.854Z,38.02
2023-05-22T09:49:58.678Z,38.04
2023-05-22T09:51:03.612Z,38.28
2023-05-22T09:52:09.379Z,38.31
2023-05-22T09:53:14.390Z,38.81
2023-05-22T09:54:20.207Z,38.64
2023-05-22T09:55:23.983Z,38.86
2023-05-22T09:56:39.199Z,38.66
2023-05-22T09:57:46.794Z,38.22
2023-05-22T09:58:52.650Z,38.39
2023-05-22T09:59:58.566Z,38.71
2023-05-22T10:01:03.410Z,39.00
2023-05-22T10:02:07.030Z,39.10
2023-05-22T10:03:16.030Z,39.63
2023-05-22T10:04:22.022Z,39.47
2023-05-22T10:05:31.580Z,39.38
2023-05-22T10:06:37.219Z,39.40
2023-05-22T10:07:49.987Z,39.09
2023-05-22T10:09:05.512Z,38.90
2023-05-22T10:10:12.246Z,38.12
2023-05-22T10:11:18.021Z,38.09
2023-05-22T10:12:25.292Z,37.48
2023-05-22T10:13:29.340Z,37.48
2023-05-22T10:14:32.840Z,37.86
2023-05-22T10:15:35.966Z,38.01
2023-05-22T10:16:39.892Z,37.87
2023-05-22T10:17:44.846Z,38.32
2023-05-22T10:18:49.205Z,38.56
2023-05-22T10:19:54.320Z,37.35
2023-05-22T10:20:59.778Z,37.66
2023-05-22T10:22:03.958Z,37.89
2023-05-22T10:23:08.206Z,38.13
2023-05-22T10:24:12.548Z,38.09
2023-05-22T10:25:23.805Z,38.34
2023-05-22T10:26:27.490Z,38.48
2023-05-22T10:27:30.530Z,38.68
2023-05-22T10:28:40.808Z,38.03
2023-05-22T10:30:04.037Z,38.18
2023-05-22T10:31:23.964Z,37.81
2023-05-22T10:33:06.288Z,37.79
2023-05-22T10:34:17.287Z,38.60
2023-05-22T10:35:25.398Z,38.62
2023-05-22T10:36:48.221Z,38.23
2023-05-22T10:37:55.064Z,38.18
2023-05-22T10:39:23.311Z,38.23
2023-05-22T10:40:32.765Z,38.42
2023-05-22T10:41:35.815Z,38.55
2023-05-22T10:42:38.969Z,38.64
2023-05-22T10:43:45.392Z,38.75
2023-05-22T10:44:49.152Z,37.81
2023-05-22T10:46:05.677Z,38.04
2023-05-22T10:47:11.551Z,38.15
2023-05-22T10:48:16.094Z,38.14
2023-05-22T10:49:26.234Z,37.99
2023-05-22T10:50:29.390Z,38.03
2023-05-22T10:51:34.384Z,38.21
2023-05-22T10:52:38.433Z,38.53
2023-05-22T10:53:45.296Z,38.96
2023-05-22T10:54:53.778Z,38.64
2023-05-22T10:55:57.949Z,38.72
2023-05-22T10:57:17.529Z,38.56
2023-05-22T10:58:37.542Z,38.39
2023-05-22T10:59:40.617Z,38.06
2023-05-22T11:00:44.620Z,37.94
2023-05-22T11:01:47.570Z,37.49
2023-05-22T11:03:17.162Z,37.79
2023-05-22T11:04:25.880Z,37.53
2023-05-22T11:05:30.209Z,37.46
2023-05-22T11:06:43.246Z,36.93
2023-05-22T11:07:46.223Z,36.83
2023-05-22T11:08:49.925Z,37.48
2023-05-22T11:10:00.506Z,36.98
2023-05-22T11:11:12.833Z,37.15
2023-05-22T11:12:31.234Z,36.97
2023-05-22T11:13:36.948Z,36.91
2023-05-22T11:14:39.976Z,36.74
2023-05-22T11:15:46.117Z,36.26
2023-05-22T11:16:49.120Z,36.24
2023-05-22T11:17:52.399Z,36.34
2023-05-22T11:19:21.857Z,36.04
2023-05-22T11:20:26.794Z,36.36
2023-05-22T11:21:31.198Z,36.58
2023-05-22T11:22:37.837Z,35.81
2023-05-22T11:23:41.732Z,35.96
2023-05-22T11:24:44.949Z,36.18
2023-05-22T11:25:47.868Z,36.30
2023-05-22T11:27:20.838Z,36.45
2023-05-22T11:28:24.364Z,36.52
2023-05-22T11:29:29.446Z,34.73
2023-05-22T11:30:33.918Z,34.80
2023-05-22T11:31:37.880Z,34.25
2023-05-22T11:32:46.010Z,34.38
2023-05-22T11:33:49.221Z,34.73
2023-05-22T11:34:53.386Z,35.46
2023-05-22T11:35:57.343Z,35.03
2023-05-22T11:37:00.303Z,34.19
2023-05-22T11:38:07.275Z,34.29
2023-05-22T11:39:15.024Z,34.29
2023-05-22T11:40:24.628Z,34.68
2023-05-22T11:41:33.936Z,34.34
2023-05-22T11:42:37.854Z,34.34
2023-05-22T11:43:43.209Z,35.01
2023-05-22T11:44:46.355Z,33.67
2023-05-22T11:45:49.368Z,33.67
2023-05-22T11:46:52.685Z,33.60
2023-05-22T11:47:56.013Z,33.90
2023-05-22T11:48:59.246Z,32.68
2023-05-22T11:50:02.396Z,32.35
2023-05-22T11:51:05.497Z,32.43
2023-05-22T11:52:12.118Z,32.27
2023-05-22T11:53:15.092Z,32.33
2023-05-22T11:54:18.767Z,32.67
2023-05-22T11:55:23.438Z,33.25
2023-05-22T11:56:26.543Z,33.38
2023-05-22T11:57:29.557Z,33.66
2023-05-22T11:58:33.405Z,33.54
2023-05-22T11:59:36.386Z,33.14
2023-05-22T12:00:39.950Z,33.02
2023-05-22T12:01:43.175Z,32.47
2023-05-22T12:02:49.351Z,32.47
2023-05-22T12:03:52.440Z,32.72
2023-05-22T12:04:56.442Z,32.46
2023-05-22T12:05:59.480Z,32.82
2023-05-22T12:07:02.503Z,33.23
2023-05-22T12:08:05.679Z,33.57
2023-05-22T12:09:09.166Z,33.49
2023-05-22T12:10:14.674Z,33.22
2023-05-22T12:11:18.017Z,33.09
2023-05-22T12:12:22.470Z,33.16
2023-05-22T12:13:30.058Z,33.27
2023-05-22T12:14:32.997Z,33.04
2023-05-22T12:15:35.872Z,33.34
2023-05-22T12:16:39.500Z,33.15
2023-05-22T12:17:43.133Z,32.79
2023-05-22T12:18:46.356Z,32.60
2023-05-22T12:19:49.313Z,32.68
2023-05-22T12:20:54.897Z,32.99
2023-05-22T12:21:58.939Z,32.99
2023-05-22T12:23:01.962Z,32.71
2023-05-22T12:24:06.635Z,33.03
2023-05-22T12:25:15.225Z,33.15
2023-05-22T12:26:20.317Z,33.01
2023-05-22T12:27:23.266Z,32.97
2023-05-22T12:28:27.292Z,32.99
2023-05-22T12:29:30.242Z,33.01
2023-05-22T12:30:42.712Z,33.24
2023-05-22T12:31:49.194Z,33.00
2023-05-22T12:32:52.246Z,32.93
2023-05-22T12:33:56.087Z,32.89
2023-05-22T12:35:00.015Z,32.16
2023-05-22T12:36:08.262Z,32.60
2023-05-22T12:37:38.180Z,33.14
2023-05-22T12:38:41.229Z,32.77
2023-05-22T12:39:59.944Z,32.18
2023-05-22T12:41:02.950Z,31.56
2023-05-22T12:42:06.206Z,31.45
2023-05-22T12:43:13.199Z,31.32
2023-05-22T12:44:18.557Z,31.47
2023-05-22T12:45:21.551Z,32.10
2023-05-22T12:46:24.451Z,32.70
2023-05-22T12:47:27.467Z,33.07
2023-05-22T12:48:30.646Z,32.78
2023-05-22T12:49:33.563Z,32.37
2023-05-22T12:50:36.532Z,32.13
2023-05-22T12:51:39.577Z,32.53
2023-05-22T12:52:42.531Z,32.10
2023-05-22T12:53:45.529Z,31.72
2023-05-22T12:54:48.477Z,31.86
2023-05-22T12:55:51.388Z,31.89
2023-05-22T12:56:54.267Z,31.71
2023-05-22T12:57:57.322Z,31.86
2023-05-22T12:59:00.778Z,31.89
2023-05-22T13:00:06.050Z,31.59
2023-05-22T13:01:09.521Z,31.69
2023-05-22T13:02:12.552Z,32.03
2023-05-22T13:03:15.993Z,32.16
2023-05-22T13:04:19.784Z,31.92
2023-05-22T13:05:22.981Z,31.90
2023-05-22T13:06:27.991Z,31.73
2023-05-22T13:07:32.685Z,31.16
2023-05-22T13:08:35.589Z,29.97
2023-05-22T13:09:38.675Z,30.23
2023-05-22T13:10:41.606Z,30.53
2023-05-22T13:11:44.626Z,31.12
2023-05-22T13:12:51.604Z,31.40
2023-05-22T13:13:54.735Z,31.52
2023-05-22T13:14:58.839Z,31.69
2023-05-22T13:16:01.780Z,30.90
2023-05-22T13:17:04.952Z,30.66
2023-05-22T13:18:08.291Z,30.85
2023-05-22T13:19:11.432Z,31.33
2023-05-22T13:20:14.389Z,31.76
2023-05-22T13:21:17.616Z,31.47
2023-05-22T13:22:20.865Z,31.27
2023-05-22T13:23:24.143Z,30.81
2023-05-22T13:24:27.005Z,30.83
2023-05-22T13:25:30.212Z,30.80
2023-05-22T13:26:33.292Z,31.16
2023-05-22T13:27:36.626Z,31.06
2023-05-22T13:28:39.482Z,30.78
2023-05-22T13:29:42.363Z,30.37
2023-05-22T13:30:45.326Z,31.10
2023-05-22T13:31:48.233Z,30.88
2023-05-22T13:32:51.956Z,30.93
2023-05-22T13:33:54.965Z,31.31
2023-05-22T13:34:58.402Z,31.31
2023-05-22T13:36:01.396Z,31.37
2023-05-22T13:37:04.519Z,30.98
2023-05-22T13:38:08.039Z,30.71
2023-05-22T13:39:10.985Z,30.74
2023-05-22T13:40:16.232Z,31.19
2023-05-22T13:41:19.582Z,31.37
2023-05-22T13:42:23.341Z,31.46
2023-05-22T13:43:26.263Z,31.78
2023-05-22T13:44:29.209Z,31.36
2023-05-22T13:45:32.508Z,31.02
2023-05-22T13:46:36.137Z,31.66
2023-05-22T13:47:39.645Z,32.25
2023-05-22T13:48:42.588Z,32.20
2023-05-22T13:49:46.010Z,32.08
2023-05-22T13:50:48.853Z,31.88
2023-05-22T13:51:51.855Z,32.10
2023-05-22T13:52:54.815Z,32.24
2023-05-22T13:53:57.846Z,32.24
2023-05-22T13:55:01.223Z,32.45
2023-05-22T13:56:04.704Z,32.15
2023-05-22T13:57:07.643Z,32.51
2023-05-22T13:58:10.807Z,32.44
2023-05-22T13:59:13.712Z,32.11
2023-05-22T14:00:17.113Z,31.78
2023-05-22T14:01:20.283Z,31.92
2023-05-22T14:02:23.232Z,32.26
2023-05-22T14:03:26.256Z,32.37
2023-05-22T14:04:29.663Z,32.31
2023-05-22T14:05:32.682Z,32.32
2023-05-22T14:06:35.695Z,32.67